sensor_id;sensor_type;location;lat;lon;timestamp;temperature;humidity
64888;DHT22;51386;53.082;8.816;2022-09-09T00:00:12;18.40;82.30
64888;DHT22;51386;53.082;8.816;2022-09-09T00:02:47;18.40;82.60
64888;DHT22;51386;53.082;8.816;2022-09-09T00:05:29;18.40;82.60
64888;DHT22;51386;53.082;8.816;2022-09-09T00:08:02;18.40;83.00
64888;DHT22;51386;53.082;8.816;2022-09-09T00:10:37;18.40;82.90
64888;DHT22;51386;53.082;8.816;2022-09-09T00:13:17;18.40;83.00
64888;DHT22;51386;53.082;8.816;2022-09-09T00:15:59;18.40;83.20
64888;DHT22;51386;53.082;8.816;2022-09-09T00:18:36;18.40;83.40
64888;DHT22;51386;53.082;8.816;2022-09-09T00:21:13;18.30;83.40
64888;DHT22;51386;53.082;8.816;2022-09-09T00:23:48;18.30;83.60
64888;DHT22;51386;53.082;8.816;2022-09-09T00:26:23;18.30;83.80
64888;DHT22;51386;53.082;8.816;2022-09-09T00:29:05;18.30;83.90
64888;DHT22;51386;53.082;8.816;2022-09-09T00:31:41;18.30;84.00
64888;DHT22;51386;53.082;8.816;2022-09-09T00:34:12;18.20;83.90
64888;DHT22;51386;53.082;8.816;2022-09-09T00:36:45;18.20;84.10
64888;DHT22;51386;53.082;8.816;2022-09-09T00:39:23;18.20;84.00
64888;DHT22;51386;53.082;8.816;2022-09-09T00:42:05;18.20;84.10
64888;DHT22;51386;53.082;8.816;2022-09-09T00:44:52;18.20;84.10
64888;DHT22;51386;53.082;8.816;2022-09-09T00:47:44;18.10;84.00
64888;DHT22;51386;53.082;8.816;2022-09-09T00:50:24;18.10;84.00
64888;DHT22;51386;53.082;8.816;2022-09-09T00:53:15;18.10;84.10
64888;DHT22;51386;53.082;8.816;2022-09-09T00:56:09;18.10;84.20
64888;DHT22;51386;53.082;8.816;2022-09-09T00:58:42;18.10;84.20
64888;DHT22;51386;53.082;8.816;2022-09-09T01:01:17;18.00;84.90
64888;DHT22;51386;53.082;8.816;2022-09-09T01:03:48;18.00;84.10
64888;DHT22;51386;53.082;8.816;2022-09-09T01:06:25;18.00;84.20
64888;DHT22;51386;53.082;8.816;2022-09-09T01:09:12;18.00;84.20
64888;DHT22;51386;53.082;8.816;2022-09-09T01:11:52;18.00;84.10
64888;DHT22;51386;53.082;8.816;2022-09-09T01:14:37;17.90;84.10
64888;DHT22;51386;53.082;8.816;2022-09-09T01:17:13;17.90;84.10
64888;DHT22;51386;53.082;8.816;2022-09-09T01:19:54;17.90;83.90
64888;DHT22;51386;53.082;8.816;2022-09-09T01:22:34;17.90;84.00
64888;DHT22;51386;53.082;8.816;2022-09-09T01:25:22;17.90;83.90
64888;DHT22;51386;53.082;8.816;2022-09-09T01:27:59;17.90;83.90
64888;DHT22;51386;53.082;8.816;2022-09-09T01:30:38;17.90;83.80
64888;DHT22;51386;53.082;8.816;2022-09-09T01:33:13;17.90;84.50
64888;DHT22;51386;53.082;8.816;2022-09-09T01:35:46;17.90;83.70
64888;DHT22;51386;53.082;8.816;2022-09-09T01:38:18;17.80;83.60
64888;DHT22;51386;53.082;8.816;2022-09-09T01:40:45;17.80;83.50
64888;DHT22;51386;53.082;8.816;2022-09-09T01:43:14;17.80;83.70
64888;DHT22;51386;53.082;8.816;2022-09-09T01:45:42;17.80;83.50
64888;DHT22;51386;53.082;8.816;2022-09-09T01:48:13;17.80;83.30
64888;DHT22;51386;53.082;8.816;2022-09-09T01:50:41;17.80;83.10
64888;DHT22;51386;53.082;8.816;2022-09-09T01:53:08;17.80;83.10
64888;DHT22;51386;53.082;8.816;2022-09-09T01:55:39;17.80;83.10
64888;DHT22;51386;53.082;8.816;2022-09-09T01:58:20;17.70;83.10
64888;DHT22;51386;53.082;8.816;2022-09-09T02:01:04;17.70;83.10
64888;DHT22;51386;53.082;8.816;2022-09-09T02:03:39;17.70;83.10
64888;DHT22;51386;53.082;8.816;2022-09-09T02:06:22;17.70;82.90
64888;DHT22;51386;53.082;8.816;2022-09-09T02:08:56;17.70;82.80
64888;DHT22;51386;53.082;8.816;2022-09-09T02:11:27;17.70;82.70
64888;DHT22;51386;53.082;8.816;2022-09-09T02:14:01;17.70;83.00
64888;DHT22;51386;53.082;8.816;2022-09-09T02:16:36;17.70;83.20
64888;DHT22;51386;53.082;8.816;2022-09-09T02:19:10;17.70;83.20
64888;DHT22;51386;53.082;8.816;2022-09-09T02:21:44;17.80;82.90
64888;DHT22;51386;53.082;8.816;2022-09-09T02:24:14;17.80;82.40
64888;DHT22;51386;53.082;8.816;2022-09-09T02:26:45;17.80;82.10
64888;DHT22;51386;53.082;8.816;2022-09-09T02:29:19;17.70;82.30
64888;DHT22;51386;53.082;8.816;2022-09-09T02:31:51;17.70;82.10
64888;DHT22;51386;53.082;8.816;2022-09-09T02:34:23;17.70;82.40
64888;DHT22;51386;53.082;8.816;2022-09-09T02:36:53;17.70;82.00
64888;DHT22;51386;53.082;8.816;2022-09-09T02:39:24;17.70;81.80
64888;DHT22;51386;53.082;8.816;2022-09-09T02:41:51;17.60;81.60
64888;DHT22;51386;53.082;8.816;2022-09-09T02:44:20;17.60;81.70
64888;DHT22;51386;53.082;8.816;2022-09-09T02:47:16;17.50;81.60
64888;DHT22;51386;53.082;8.816;2022-09-09T02:49:58;17.50;81.90
64888;DHT22;51386;53.082;8.816;2022-09-09T02:52:42;17.50;82.30
64888;DHT22;51386;53.082;8.816;2022-09-09T02:55:23;17.50;82.10
64888;DHT22;51386;53.082;8.816;2022-09-09T02:57:57;17.50;82.00
64888;DHT22;51386;53.082;8.816;2022-09-09T03:00:27;17.40;81.90
64888;DHT22;51386;53.082;8.816;2022-09-09T03:02:56;17.40;82.00
64888;DHT22;51386;53.082;8.816;2022-09-09T03:05:24;17.40;81.90
64888;DHT22;51386;53.082;8.816;2022-09-09T03:07:52;17.30;81.80
64888;DHT22;51386;53.082;8.816;2022-09-09T03:10:19;17.30;81.90
64888;DHT22;51386;53.082;8.816;2022-09-09T03:12:47;17.30;82.00
64888;DHT22;51386;53.082;8.816;2022-09-09T03:15:14;17.20;82.00
64888;DHT22;51386;53.082;8.816;2022-09-09T03:17:43;17.20;82.10
64888;DHT22;51386;53.082;8.816;2022-09-09T03:20:10;17.20;82.20
64888;DHT22;51386;53.082;8.816;2022-09-09T03:22:39;17.10;82.30
64888;DHT22;51386;53.082;8.816;2022-09-09T03:25:07;17.10;83.10
64888;DHT22;51386;53.082;8.816;2022-09-09T03:27:35;17.10;82.40
64888;DHT22;51386;53.082;8.816;2022-09-09T03:30:02;17.10;82.40
64888;DHT22;51386;53.082;8.816;2022-09-09T03:32:30;17.10;82.60
64888;DHT22;51386;53.082;8.816;2022-09-09T03:34:59;17.10;82.60
64888;DHT22;51386;53.082;8.816;2022-09-09T03:37:26;17.10;82.60
64888;DHT22;51386;53.082;8.816;2022-09-09T03:39:54;17.10;82.60
64888;DHT22;51386;53.082;8.816;2022-09-09T03:42:21;17.10;82.40
64888;DHT22;51386;53.082;8.816;2022-09-09T03:44:48;17.10;82.30
64888;DHT22;51386;53.082;8.816;2022-09-09T03:47:17;17.10;82.30
64888;DHT22;51386;53.082;8.816;2022-09-09T03:49:46;17.20;82.30
64888;DHT22;51386;53.082;8.816;2022-09-09T03:52:15;17.20;82.30
64888;DHT22;51386;53.082;8.816;2022-09-09T03:54:49;17.20;82.20
64888;DHT22;51386;53.082;8.816;2022-09-09T03:57:20;17.20;82.20
64888;DHT22;51386;53.082;8.816;2022-09-09T03:59:48;17.20;82.30
64888;DHT22;51386;53.082;8.816;2022-09-09T04:02:15;17.20;82.20
64888;DHT22;51386;53.082;8.816;2022-09-09T04:04:43;17.20;82.10
64888;DHT22;51386;53.082;8.816;2022-09-09T04:07:10;17.20;82.10
64888;DHT22;51386;53.082;8.816;2022-09-09T04:09:40;17.20;82.10
64888;DHT22;51386;53.082;8.816;2022-09-09T04:12:07;17.20;82.80
64888;DHT22;51386;53.082;8.816;2022-09-09T04:14:35;17.20;82.10
64888;DHT22;51386;53.082;8.816;2022-09-09T04:17:02;17.20;82.10
64888;DHT22;51386;53.082;8.816;2022-09-09T04:19:33;17.30;82.20
64888;DHT22;51386;53.082;8.816;2022-09-09T04:22:00;17.30;82.30
64888;DHT22;51386;53.082;8.816;2022-09-09T04:24:27;17.30;82.30
64888;DHT22;51386;53.082;8.816;2022-09-09T04:26:57;17.30;82.30
64888;DHT22;51386;53.082;8.816;2022-09-09T04:29:24;17.30;82.30
64888;DHT22;51386;53.082;8.816;2022-09-09T04:31:51;17.30;82.40
64888;DHT22;51386;53.082;8.816;2022-09-09T04:34:20;17.30;82.30
64888;DHT22;51386;53.082;8.816;2022-09-09T04:36:47;17.30;82.30
64888;DHT22;51386;53.082;8.816;2022-09-09T04:39:15;17.40;82.20
64888;DHT22;51386;53.082;8.816;2022-09-09T04:41:42;17.40;82.30
64888;DHT22;51386;53.082;8.816;2022-09-09T04:44:11;17.40;82.20
64888;DHT22;51386;53.082;8.816;2022-09-09T04:46:39;17.40;82.30
64888;DHT22;51386;53.082;8.816;2022-09-09T04:49:08;17.40;82.30
64888;DHT22;51386;53.082;8.816;2022-09-09T04:51:40;17.50;82.40
64888;DHT22;51386;53.082;8.816;2022-09-09T04:54:08;17.50;82.30
64888;DHT22;51386;53.082;8.816;2022-09-09T04:56:36;17.50;82.30
64888;DHT22;51386;53.082;8.816;2022-09-09T04:59:03;17.50;82.30
64888;DHT22;51386;53.082;8.816;2022-09-09T05:01:32;17.60;82.40
64888;DHT22;51386;53.082;8.816;2022-09-09T05:04:00;17.50;82.10
64888;DHT22;51386;53.082;8.816;2022-09-09T05:06:29;17.50;82.10
64888;DHT22;51386;53.082;8.816;2022-09-09T05:08:59;17.60;82.10
64888;DHT22;51386;53.082;8.816;2022-09-09T05:11:28;17.50;82.00
64888;DHT22;51386;53.082;8.816;2022-09-09T05:13:57;17.50;82.10
64888;DHT22;51386;53.082;8.816;2022-09-09T05:16:24;17.50;82.10
64888;DHT22;51386;53.082;8.816;2022-09-09T05:18:53;17.50;82.20
64888;DHT22;51386;53.082;8.816;2022-09-09T05:21:22;17.50;82.20
64888;DHT22;51386;53.082;8.816;2022-09-09T05:23:52;17.50;82.30
64888;DHT22;51386;53.082;8.816;2022-09-09T05:26:20;17.40;82.20
64888;DHT22;51386;53.082;8.816;2022-09-09T05:28:49;17.40;82.10
64888;DHT22;51386;53.082;8.816;2022-09-09T05:31:17;17.50;82.30
64888;DHT22;51386;53.082;8.816;2022-09-09T05:33:47;17.40;82.20
64888;DHT22;51386;53.082;8.816;2022-09-09T05:36:18;17.40;82.00
64888;DHT22;51386;53.082;8.816;2022-09-09T05:38:47;17.40;82.10
64888;DHT22;51386;53.082;8.816;2022-09-09T05:41:16;17.40;82.10
64888;DHT22;51386;53.082;8.816;2022-09-09T05:43:44;17.40;82.20
64888;DHT22;51386;53.082;8.816;2022-09-09T05:46:15;17.40;82.20
64888;DHT22;51386;53.082;8.816;2022-09-09T05:48:45;17.40;82.20
64888;DHT22;51386;53.082;8.816;2022-09-09T05:51:17;17.40;82.20
64888;DHT22;51386;53.082;8.816;2022-09-09T05:53:45;17.40;82.20
64888;DHT22;51386;53.082;8.816;2022-09-09T05:56:15;17.40;82.30
64888;DHT22;51386;53.082;8.816;2022-09-09T05:58:47;17.40;82.40
64888;DHT22;51386;53.082;8.816;2022-09-09T06:01:16;17.40;82.20
64888;DHT22;51386;53.082;8.816;2022-09-09T06:03:46;17.50;82.10
64888;DHT22;51386;53.082;8.816;2022-09-09T06:06:17;17.50;81.90
64888;DHT22;51386;53.082;8.816;2022-09-09T06:08:51;17.50;81.90
64888;DHT22;51386;53.082;8.816;2022-09-09T06:11:21;17.50;81.80
64888;DHT22;51386;53.082;8.816;2022-09-09T06:13:50;17.50;81.90
64888;DHT22;51386;53.082;8.816;2022-09-09T06:16:22;17.50;82.00
64888;DHT22;51386;53.082;8.816;2022-09-09T06:18:51;17.50;82.10
64888;DHT22;51386;53.082;8.816;2022-09-09T06:21:23;17.60;81.90
64888;DHT22;51386;53.082;8.816;2022-09-09T06:23:52;17.60;82.00
64888;DHT22;51386;53.082;8.816;2022-09-09T06:26:27;17.60;81.80
64888;DHT22;51386;53.082;8.816;2022-09-09T06:28:56;17.70;81.50
64888;DHT22;51386;53.082;8.816;2022-09-09T06:31:26;17.80;81.70
64888;DHT22;51386;53.082;8.816;2022-09-09T06:33:58;17.90;81.50
64888;DHT22;51386;53.082;8.816;2022-09-09T06:36:28;17.90;80.90
64888;DHT22;51386;53.082;8.816;2022-09-09T06:38:58;18.00;80.60
64888;DHT22;51386;53.082;8.816;2022-09-09T06:41:28;18.10;80.40
64888;DHT22;51386;53.082;8.816;2022-09-09T06:43:57;18.10;79.80
64888;DHT22;51386;53.082;8.816;2022-09-09T06:46:26;18.20;79.40
64888;DHT22;51386;53.082;8.816;2022-09-09T06:48:55;18.20;79.20
64888;DHT22;51386;53.082;8.816;2022-09-09T06:51:25;18.30;79.60
64888;DHT22;51386;53.082;8.816;2022-09-09T06:53:56;18.30;79.10
64888;DHT22;51386;53.082;8.816;2022-09-09T06:56:26;18.30;78.80
64888;DHT22;51386;53.082;8.816;2022-09-09T06:58:56;18.30;78.70
64888;DHT22;51386;53.082;8.816;2022-09-09T07:01:32;18.40;79.20
64888;DHT22;51386;53.082;8.816;2022-09-09T07:04:02;18.40;78.70
64888;DHT22;51386;53.082;8.816;2022-09-09T07:06:33;18.50;78.90
64888;DHT22;51386;53.082;8.816;2022-09-09T07:09:03;18.50;79.30
64888;DHT22;51386;53.082;8.816;2022-09-09T07:11:34;18.70;79.00
64888;DHT22;51386;53.082;8.816;2022-09-09T07:14:04;18.90;78.30
64888;DHT22;51386;53.082;8.816;2022-09-09T07:16:32;19.20;77.10
64888;DHT22;51386;53.082;8.816;2022-09-09T07:19:00;19.60;77.30
64888;DHT22;51386;53.082;8.816;2022-09-09T07:21:32;20.10;77.50
64888;DHT22;51386;53.082;8.816;2022-09-09T07:24:00;20.70;75.60
64888;DHT22;51386;53.082;8.816;2022-09-09T07:26:30;21.30;71.70
64888;DHT22;51386;53.082;8.816;2022-09-09T07:28:57;21.80;70.10
64888;DHT22;51386;53.082;8.816;2022-09-09T07:31:27;22.40;68.70
64888;DHT22;51386;53.082;8.816;2022-09-09T07:33:58;22.90;68.40
64888;DHT22;51386;53.082;8.816;2022-09-09T07:36:28;23.40;64.50
64888;DHT22;51386;53.082;8.816;2022-09-09T07:39:03;24.00;63.20
64888;DHT22;51386;53.082;8.816;2022-09-09T07:41:33;24.40;60.10
64888;DHT22;51386;53.082;8.816;2022-09-09T07:44:06;24.90;58.90
64888;DHT22;51386;53.082;8.816;2022-09-09T07:46:35;25.10;57.20
64888;DHT22;51386;53.082;8.816;2022-09-09T07:49:03;25.40;58.00
64888;DHT22;51386;53.082;8.816;2022-09-09T07:51:32;25.70;58.40
64888;DHT22;51386;53.082;8.816;2022-09-09T07:54:04;26.10;57.40
64888;DHT22;51386;53.082;8.816;2022-09-09T07:56:32;26.50;54.40
64888;DHT22;51386;53.082;8.816;2022-09-09T07:59:00;26.90;54.50
64888;DHT22;51386;53.082;8.816;2022-09-09T08:01:30;27.30;54.50
64888;DHT22;51386;53.082;8.816;2022-09-09T08:04:01;27.70;53.30
64888;DHT22;51386;53.082;8.816;2022-09-09T08:06:32;28.10;51.50
64888;DHT22;51386;53.082;8.816;2022-09-09T08:09:03;28.30;50.70
64888;DHT22;51386;53.082;8.816;2022-09-09T08:11:32;28.20;48.40
64888;DHT22;51386;53.082;8.816;2022-09-09T08:14:05;28.10;48.90
64888;DHT22;51386;53.082;8.816;2022-09-09T08:16:37;27.90;48.30
64888;DHT22;51386;53.082;8.816;2022-09-09T08:19:06;27.80;48.70
64888;DHT22;51386;53.082;8.816;2022-09-09T08:21:35;27.60;48.80
64888;DHT22;51386;53.082;8.816;2022-09-09T08:24:06;27.20;49.80
64888;DHT22;51386;53.082;8.816;2022-09-09T08:26:36;26.80;50.30
64888;DHT22;51386;53.082;8.816;2022-09-09T08:29:06;26.40;51.40
64888;DHT22;51386;53.082;8.816;2022-09-09T08:31:36;26.20;52.30
64888;DHT22;51386;53.082;8.816;2022-09-09T08:34:06;26.00;53.50
64888;DHT22;51386;53.082;8.816;2022-09-09T08:36:36;26.00;53.20
64888;DHT22;51386;53.082;8.816;2022-09-09T08:39:06;26.10;53.30
64888;DHT22;51386;53.082;8.816;2022-09-09T08:44:58;26.00;53.10
64888;DHT22;51386;53.082;8.816;2022-09-09T08:47:56;25.90;53.60
64888;DHT22;51386;53.082;8.816;2022-09-09T08:50:34;25.70;54.20
64888;DHT22;51386;53.082;8.816;2022-09-09T08:53:10;25.40;54.50
64888;DHT22;51386;53.082;8.816;2022-09-09T08:55:46;25.10;55.20
64888;DHT22;51386;53.082;8.816;2022-09-09T08:58:17;24.70;56.20
64888;DHT22;51386;53.082;8.816;2022-09-09T09:01:09;24.40;57.00
64888;DHT22;51386;53.082;8.816;2022-09-09T09:03:53;24.10;58.10
64888;DHT22;51386;53.082;8.816;2022-09-09T09:06:38;23.80;59.10
64888;DHT22;51386;53.082;8.816;2022-09-09T09:09:16;23.60;59.70
64888;DHT22;51386;53.082;8.816;2022-09-09T09:11:54;23.40;60.00
64888;DHT22;51386;53.082;8.816;2022-09-09T09:14:28;23.20;60.50
64888;DHT22;51386;53.082;8.816;2022-09-09T09:17:00;23.10;61.10
64888;DHT22;51386;53.082;8.816;2022-09-09T09:19:49;23.00;60.70
64888;DHT22;51386;53.082;8.816;2022-09-09T09:22:19;23.00;60.40
64888;DHT22;51386;53.082;8.816;2022-09-09T09:24:52;23.00;60.50
64888;DHT22;51386;53.082;8.816;2022-09-09T09:27:30;22.90;61.00
64888;DHT22;51386;53.082;8.816;2022-09-09T09:30:01;22.90;61.30
64888;DHT22;51386;53.082;8.816;2022-09-09T09:33:02;23.10;60.70
64888;DHT22;51386;53.082;8.816;2022-09-09T09:35:35;23.30;60.20
64888;DHT22;51386;53.082;8.816;2022-09-09T09:38:16;23.60;60.30
64888;DHT22;51386;53.082;8.816;2022-09-09T09:41:05;24.20;59.60
64888;DHT22;51386;53.082;8.816;2022-09-09T09:43:36;24.90;57.20
64888;DHT22;51386;53.082;8.816;2022-09-09T09:46:05;25.60;55.70
64888;DHT22;51386;53.082;8.816;2022-09-09T09:48:44;26.10;53.80
64888;DHT22;51386;53.082;8.816;2022-09-09T09:51:23;26.50;52.60
64888;DHT22;51386;53.082;8.816;2022-09-09T09:53:52;26.50;51.40
64888;DHT22;51386;53.082;8.816;2022-09-09T09:56:27;26.30;51.10
64888;DHT22;51386;53.082;8.816;2022-09-09T09:58:58;25.90;51.40
64888;DHT22;51386;53.082;8.816;2022-09-09T10:01:35;25.60;52.10
64888;DHT22;51386;53.082;8.816;2022-09-09T10:04:15;25.20;53.90
64888;DHT22;51386;53.082;8.816;2022-09-09T10:06:45;25.00;55.40
64888;DHT22;51386;53.082;8.816;2022-09-09T10:09:24;25.10;56.20
64888;DHT22;51386;53.082;8.816;2022-09-09T10:11:58;25.40;55.90
64888;DHT22;51386;53.082;8.816;2022-09-09T10:14:39;25.80;55.50
64888;DHT22;51386;53.082;8.816;2022-09-09T10:17:22;26.30;54.70
64888;DHT22;51386;53.082;8.816;2022-09-09T10:20:04;26.40;52.20
64888;DHT22;51386;53.082;8.816;2022-09-09T10:22:51;26.30;51.70
64888;DHT22;51386;53.082;8.816;2022-09-09T10:25:36;26.00;52.70
64888;DHT22;51386;53.082;8.816;2022-09-09T10:28:33;25.80;53.00
64888;DHT22;51386;53.082;8.816;2022-09-09T10:31:27;25.80;53.40
64888;DHT22;51386;53.082;8.816;2022-09-09T10:34:11;25.80;53.00
64888;DHT22;51386;53.082;8.816;2022-09-09T10:36:49;25.80;52.90
64888;DHT22;51386;53.082;8.816;2022-09-09T10:39:31;25.70;53.20
64888;DHT22;51386;53.082;8.816;2022-09-09T10:42:11;25.70;53.50
64888;DHT22;51386;53.082;8.816;2022-09-09T10:44:51;25.60;53.60
64888;DHT22;51386;53.082;8.816;2022-09-09T10:47:42;25.50;54.00
64888;DHT22;51386;53.082;8.816;2022-09-09T10:50:42;25.30;54.00
64888;DHT22;51386;53.082;8.816;2022-09-09T10:53:41;25.10;54.60
64888;DHT22;51386;53.082;8.816;2022-09-09T10:56:18;25.00;54.90
64888;DHT22;51386;53.082;8.816;2022-09-09T10:58:50;24.90;55.20
64888;DHT22;51386;53.082;8.816;2022-09-09T11:01:22;24.80;55.00
64888;DHT22;51386;53.082;8.816;2022-09-09T11:03:59;24.80;55.00
64888;DHT22;51386;53.082;8.816;2022-09-09T11:06:39;24.70;54.40
64888;DHT22;51386;53.082;8.816;2022-09-09T11:09:15;24.60;54.60
64888;DHT22;51386;53.082;8.816;2022-09-09T11:11:49;24.60;55.20
64888;DHT22;51386;53.082;8.816;2022-09-09T11:14:26;24.60;55.60
64888;DHT22;51386;53.082;8.816;2022-09-09T11:17:06;24.60;55.60
64888;DHT22;51386;53.082;8.816;2022-09-09T11:19:41;24.60;55.70
64888;DHT22;51386;53.082;8.816;2022-09-09T11:22:17;24.70;55.80
64888;DHT22;51386;53.082;8.816;2022-09-09T11:24:52;24.70;56.20
64888;DHT22;51386;53.082;8.816;2022-09-09T11:27:26;24.70;55.20
64888;DHT22;51386;53.082;8.816;2022-09-09T11:30:15;24.70;54.80
64888;DHT22;51386;53.082;8.816;2022-09-09T11:33:37;24.70;54.60
64888;DHT22;51386;53.082;8.816;2022-09-09T11:36:39;24.60;55.10
64888;DHT22;51386;53.082;8.816;2022-09-09T11:39:38;24.60;55.00
64888;DHT22;51386;53.082;8.816;2022-09-09T11:42:18;24.60;55.00
64888;DHT22;51386;53.082;8.816;2022-09-09T11:44:47;24.50;55.30
64888;DHT22;51386;53.082;8.816;2022-09-09T11:47:20;24.50;55.60
64888;DHT22;51386;53.082;8.816;2022-09-09T11:49:53;24.50;56.00
64888;DHT22;51386;53.082;8.816;2022-09-09T11:52:35;24.40;56.40
64888;DHT22;51386;53.082;8.816;2022-09-09T11:55:09;24.30;56.40
64888;DHT22;51386;53.082;8.816;2022-09-09T11:57:39;24.20;57.20
64888;DHT22;51386;53.082;8.816;2022-09-09T12:03:00;23.90;58.50
64888;DHT22;51386;53.082;8.816;2022-09-09T12:05:36;23.70;59.20
64888;DHT22;51386;53.082;8.816;2022-09-09T12:08:10;23.50;59.90
64888;DHT22;51386;53.082;8.816;2022-09-09T12:10:54;23.40;60.40
64888;DHT22;51386;53.082;8.816;2022-09-09T12:13:24;23.30;61.70
64888;DHT22;51386;53.082;8.816;2022-09-09T12:15:54;23.10;63.00
64888;DHT22;51386;53.082;8.816;2022-09-09T12:18:24;23.00;63.40
64888;DHT22;51386;53.082;8.816;2022-09-09T12:20:59;22.90;64.40
64888;DHT22;51386;53.082;8.816;2022-09-09T12:23:41;22.70;65.70
64888;DHT22;51386;53.082;8.816;2022-09-09T12:26:22;22.60;67.00
64888;DHT22;51386;53.082;8.816;2022-09-09T12:29:04;22.50;67.20
64888;DHT22;51386;53.082;8.816;2022-09-09T12:31:45;22.30;68.10
64888;DHT22;51386;53.082;8.816;2022-09-09T12:34:30;22.20;69.10
64888;DHT22;51386;53.082;8.816;2022-09-09T12:37:06;22.10;68.40
64888;DHT22;51386;53.082;8.816;2022-09-09T12:39:53;22.00;68.10
64888;DHT22;51386;53.082;8.816;2022-09-09T12:42:23;21.90;67.10
64888;DHT22;51386;53.082;8.816;2022-09-09T12:44:55;21.90;67.70
64888;DHT22;51386;53.082;8.816;2022-09-09T12:47:29;21.80;68.00
64888;DHT22;51386;53.082;8.816;2022-09-09T12:50:10;21.80;68.70
64888;DHT22;51386;53.082;8.816;2022-09-09T12:52:43;21.80;68.70
64888;DHT22;51386;53.082;8.816;2022-09-09T12:55:19;21.80;68.50
64888;DHT22;51386;53.082;8.816;2022-09-09T12:57:49;21.90;68.70
64888;DHT22;51386;53.082;8.816;2022-09-09T13:00:19;22.00;68.70
64888;DHT22;51386;53.082;8.816;2022-09-09T13:02:51;22.00;70.20
64888;DHT22;51386;53.082;8.816;2022-09-09T13:05:23;22.00;70.00
64888;DHT22;51386;53.082;8.816;2022-09-09T13:07:59;22.10;69.50
64888;DHT22;51386;53.082;8.816;2022-09-09T13:10:33;22.00;69.00
64888;DHT22;51386;53.082;8.816;2022-09-09T13:13:21;22.10;69.90
64888;DHT22;51386;53.082;8.816;2022-09-09T13:15:53;22.10;70.00
64888;DHT22;51386;53.082;8.816;2022-09-09T13:18:24;22.10;70.60
64888;DHT22;51386;53.082;8.816;2022-09-09T13:20:53;22.20;71.20
64888;DHT22;51386;53.082;8.816;2022-09-09T13:23:27;22.20;71.60
64888;DHT22;51386;53.082;8.816;2022-09-09T13:25:59;22.30;71.40
64888;DHT22;51386;53.082;8.816;2022-09-09T13:28:29;22.40;70.80
64888;DHT22;51386;53.082;8.816;2022-09-09T13:31:01;22.40;69.70
64888;DHT22;51386;53.082;8.816;2022-09-09T13:33:32;22.40;69.50
64888;DHT22;51386;53.082;8.816;2022-09-09T13:36:03;22.40;69.60
64888;DHT22;51386;53.082;8.816;2022-09-09T13:38:35;22.50;69.60
64888;DHT22;51386;53.082;8.816;2022-09-09T13:41:08;22.50;68.20
64888;DHT22;51386;53.082;8.816;2022-09-09T13:43:42;22.50;68.40
64888;DHT22;51386;53.082;8.816;2022-09-09T13:46:31;22.60;69.10
64888;DHT22;51386;53.082;8.816;2022-09-09T13:49:02;22.70;68.90
64888;DHT22;51386;53.082;8.816;2022-09-09T13:51:47;22.70;69.10
64888;DHT22;51386;53.082;8.816;2022-09-09T13:54:19;22.70;67.40
64888;DHT22;51386;53.082;8.816;2022-09-09T13:56:49;22.80;67.70
64888;DHT22;51386;53.082;8.816;2022-09-09T13:59:18;22.70;67.90
64888;DHT22;51386;53.082;8.816;2022-09-09T14:01:47;22.70;67.90
64888;DHT22;51386;53.082;8.816;2022-09-09T14:04:16;22.70;68.00
64888;DHT22;51386;53.082;8.816;2022-09-09T14:06:44;22.70;67.70
64888;DHT22;51386;53.082;8.816;2022-09-09T14:09:12;22.70;67.70
64888;DHT22;51386;53.082;8.816;2022-09-09T14:11:43;22.50;66.70
64888;DHT22;51386;53.082;8.816;2022-09-09T14:14:12;22.50;67.10
64888;DHT22;51386;53.082;8.816;2022-09-09T14:16:39;22.50;67.50
64888;DHT22;51386;53.082;8.816;2022-09-09T14:19:07;22.30;67.90
64888;DHT22;51386;53.082;8.816;2022-09-09T14:21:35;22.30;68.50
64888;DHT22;51386;53.082;8.816;2022-09-09T14:24:02;22.20;69.60
64888;DHT22;51386;53.082;8.816;2022-09-09T14:26:30;22.10;69.70
64888;DHT22;51386;53.082;8.816;2022-09-09T14:28:57;22.10;70.00
64888;DHT22;51386;53.082;8.816;2022-09-09T14:31:27;22.00;70.60
64888;DHT22;51386;53.082;8.816;2022-09-09T14:33:54;22.00;70.80
64888;DHT22;51386;53.082;8.816;2022-09-09T14:36:21;21.90;71.10
64888;DHT22;51386;53.082;8.816;2022-09-09T14:38:49;21.90;71.10
64888;DHT22;51386;53.082;8.816;2022-09-09T14:41:18;21.80;71.30
64888;DHT22;51386;53.082;8.816;2022-09-09T14:43:49;21.70;71.90
64888;DHT22;51386;53.082;8.816;2022-09-09T14:46:19;21.60;72.10
64888;DHT22;51386;53.082;8.816;2022-09-09T14:48:48;21.60;72.60
64888;DHT22;51386;53.082;8.816;2022-09-09T14:51:17;21.50;72.40
64888;DHT22;51386;53.082;8.816;2022-09-09T14:53:46;21.50;73.70
64888;DHT22;51386;53.082;8.816;2022-09-09T14:56:15;21.50;73.90
64888;DHT22;51386;53.082;8.816;2022-09-09T14:58:44;21.40;74.50
64888;DHT22;51386;53.082;8.816;2022-09-09T15:01:14;21.40;74.00
64888;DHT22;51386;53.082;8.816;2022-09-09T15:03:50;21.30;74.10
64888;DHT22;51386;53.082;8.816;2022-09-09T15:06:20;21.30;74.10
64888;DHT22;51386;53.082;8.816;2022-09-09T15:08:49;21.20;74.60
64888;DHT22;51386;53.082;8.816;2022-09-09T15:11:18;21.20;75.30
64888;DHT22;51386;53.082;8.816;2022-09-09T15:13:47;21.20;76.20
64888;DHT22;51386;53.082;8.816;2022-09-09T15:16:20;21.20;76.10
64888;DHT22;51386;53.082;8.816;2022-09-09T15:18:52;21.20;76.40
64888;DHT22;51386;53.082;8.816;2022-09-09T15:21:23;21.20;76.30
64888;DHT22;51386;53.082;8.816;2022-09-09T15:23:51;21.20;76.10
64888;DHT22;51386;53.082;8.816;2022-09-09T15:26:19;21.20;75.80
64888;DHT22;51386;53.082;8.816;2022-09-09T15:28:48;21.10;75.90
64888;DHT22;51386;53.082;8.816;2022-09-09T15:31:18;21.10;76.80
64888;DHT22;51386;53.082;8.816;2022-09-09T15:33:48;21.10;76.60
64888;DHT22;51386;53.082;8.816;2022-09-09T15:36:19;21.10;77.20
64888;DHT22;51386;53.082;8.816;2022-09-09T15:38:47;21.10;77.40
64888;DHT22;51386;53.082;8.816;2022-09-09T15:41:16;21.00;77.10
64888;DHT22;51386;53.082;8.816;2022-09-09T15:43:45;21.00;78.20
64888;DHT22;51386;53.082;8.816;2022-09-09T15:46:26;21.00;77.60
64888;DHT22;51386;53.082;8.816;2022-09-09T15:48:58;21.00;77.30
64888;DHT22;51386;53.082;8.816;2022-09-09T15:51:32;21.00;76.50
64888;DHT22;51386;53.082;8.816;2022-09-09T15:54:11;20.90;76.40
64888;DHT22;51386;53.082;8.816;2022-09-09T15:56:40;20.90;76.30
64888;DHT22;51386;53.082;8.816;2022-09-09T15:59:08;20.90;76.60
64888;DHT22;51386;53.082;8.816;2022-09-09T16:01:36;20.90;75.90
64888;DHT22;51386;53.082;8.816;2022-09-09T16:04:06;20.90;75.80
64888;DHT22;51386;53.082;8.816;2022-09-09T16:06:35;20.90;75.90
64888;DHT22;51386;53.082;8.816;2022-09-09T16:09:05;20.80;76.10
64888;DHT22;51386;53.082;8.816;2022-09-09T16:11:35;20.90;76.40
64888;DHT22;51386;53.082;8.816;2022-09-09T16:14:04;20.90;76.50